Airport View

Enter AWOS ICAO identifier for current METAR.

ex. KFNL

KOLS 251054Z AUTO 17004KT 10SM CLR 17/06 A2996 RMK AO2 SLP082 T01670056

25 Oct 2020 11:08

Frequency: 121.125

Phone: 520-287-9332

Other Area AWOS: KFHU - KTUS - KDMA - KRYN

TAF KOLS 250520Z 2506/2606 14005KT P6SM BKN200 FM251800 20018G28KT P6SM BKN100 FM260300 20010KT P6SM BKN100